sensor_id;sensor_type;location;lat;lon;timestamp;pressure;altitude;pressure_sealevel;temperature;humidity
25869;BME280;13688;53.154;18.136;2023-08-01T00:02:47;99766.94;;;18.48;100.00
25869;BME280;13688;53.154;18.136;2023-08-01T00:08:11;99760.84;;;18.46;100.00
25869;BME280;13688;53.154;18.136;2023-08-01T00:13:34;99756.45;;;18.45;100.00
25869;BME280;13688;53.154;18.136;2023-08-01T00:18:57;99747.23;;;18.46;100.00
25869;BME280;13688;53.154;18.136;2023-08-01T00:24:19;99732.31;;;18.42;100.00
25869;BME280;13688;53.154;18.136;2023-08-01T00:29:42;99728.51;;;18.36;100.00
25869;BME280;13688;53.154;18.136;2023-08-01T00:35:05;99729.07;;;18.31;100.00
25869;BME280;13688;53.154;18.136;2023-08-01T00:40:30;99718.58;;;18.28;100.00
25869;BME280;13688;53.154;18.136;2023-08-01T00:45:55;99710.14;;;18.23;100.00
25869;BME280;13688;53.154;18.136;2023-08-01T00:51:20;99703.22;;;18.21;100.00
25869;BME280;13688;53.154;18.136;2023-08-01T00:56:42;99702.77;;;18.17;100.00
25869;BME280;13688;53.154;18.136;2023-08-01T01:02:05;99694.61;;;18.17;100.00
25869;BME280;13688;53.154;18.136;2023-08-01T01:07:29;99689.16;;;18.17;100.00
25869;BME280;13688;53.154;18.136;2023-08-01T01:12:53;99673.20;;;18.14;100.00
25869;BME280;13688;53.154;18.136;2023-08-01T01:18:16;99662.92;;;18.10;100.00
25869;BME280;13688;53.154;18.136;2023-08-01T01:23:39;99652.64;;;18.05;100.00
25869;BME280;13688;53.154;18.136;2023-08-01T01:29:03;99647.56;;;18.02;100.00
25869;BME280;13688;53.154;18.136;2023-08-01T01:34:27;99643.92;;;17.95;100.00
25869;BME280;13688;53.154;18.136;2023-08-01T01:39:51;99640.67;;;17.85;100.00
25869;BME280;13688;53.154;18.136;2023-08-01T01:45:14;99632.83;;;17.75;100.00
25869;BME280;13688;53.154;18.136;2023-08-01T01:50:36;99622.15;;;17.73;100.00
25869;BME280;13688;53.154;18.136;2023-08-01T01:56:00;99615.79;;;17.66;100.00
25869;BME280;13688;53.154;18.136;2023-08-01T02:01:22;99610.27;;;17.60;100.00
25869;BME280;13688;53.154;18.136;2023-08-01T02:06:45;99608.10;;;17.55;100.00
25869;BME280;13688;53.154;18.136;2023-08-01T02:12:08;99598.91;;;17.56;100.00
25869;BME280;13688;53.154;18.136;2023-08-01T02:17:31;99587.88;;;17.58;100.00
25869;BME280;13688;53.154;18.136;2023-08-01T02:22:54;99579.13;;;17.62;100.00
25869;BME280;13688;53.154;18.136;2023-08-01T02:28:16;99569.94;;;17.63;100.00
25869;BME280;13688;53.154;18.136;2023-08-01T02:33:39;99562.62;;;17.64;100.00
25869;BME280;13688;53.154;18.136;2023-08-01T02:39:02;99552.90;;;17.69;100.00
25869;BME280;13688;53.154;18.136;2023-08-01T02:44:25;99539.30;;;17.69;100.00
25869;BME280;13688;53.154;18.136;2023-08-01T02:49:48;99538.91;;;17.72;100.00
25869;BME280;13688;53.154;18.136;2023-08-01T02:55:11;99524.00;;;17.68;100.00
25869;BME280;13688;53.154;18.136;2023-08-01T03:00:37;99522.48;;;17.66;100.00
25869;BME280;13688;53.154;18.136;2023-08-01T03:05:59;99526.72;;;17.68;100.00
25869;BME280;13688;53.154;18.136;2023-08-01T03:11:24;99527.76;;;17.67;100.00
25869;BME280;13688;53.154;18.136;2023-08-01T03:16:47;99522.69;;;17.64;100.00
25869;BME280;13688;53.154;18.136;2023-08-01T03:22:10;99517.05;;;17.66;100.00
25869;BME280;13688;53.154;18.136;2023-08-01T03:27:33;99521.84;;;17.64;100.00
25869;BME280;13688;53.154;18.136;2023-08-01T03:32:56;99510.53;;;17.60;100.00
25869;BME280;13688;53.154;18.136;2023-08-01T03:38:19;99506.34;;;17.58;100.00
25869;BME280;13688;53.154;18.136;2023-08-01T03:43:42;99497.70;;;17.54;100.00
25869;BME280;13688;53.154;18.136;2023-08-01T03:49:04;99500.63;;;17.53;100.00
25869;BME280;13688;53.154;18.136;2023-08-01T03:54:28;99483.28;;;17.54;100.00
25869;BME280;13688;53.154;18.136;2023-08-01T03:59:52;99489.19;;;17.57;100.00
25869;BME280;13688;53.154;18.136;2023-08-01T04:05:15;99484.31;;;17.53;100.00
25869;BME280;13688;53.154;18.136;2023-08-01T04:10:37;99482.77;;;17.43;100.00
25869;BME280;13688;53.154;18.136;2023-08-01T04:16:00;99472.48;;;17.39;100.00
25869;BME280;13688;53.154;18.136;2023-08-01T04:21:22;99483.28;;;17.32;100.00
25869;BME280;13688;53.154;18.136;2023-08-01T04:26:45;99480.48;;;17.26;100.00
25869;BME280;13688;53.154;18.136;2023-08-01T04:32:08;99474.20;;;17.25;100.00
25869;BME280;13688;53.154;18.136;2023-08-01T04:37:30;99472.92;;;17.21;100.00
25869;BME280;13688;53.154;18.136;2023-08-01T04:42:53;99456.14;;;17.17;100.00
25869;BME280;13688;53.154;18.136;2023-08-01T04:48:17;99469.48;;;17.12;100.00
25869;BME280;13688;53.154;18.136;2023-08-01T04:53:40;99456.09;;;17.11;100.00
25869;BME280;13688;53.154;18.136;2023-08-01T04:59:02;99455.90;;;17.12;100.00
25869;BME280;13688;53.154;18.136;2023-08-01T05:04:25;99461.14;;;17.14;100.00
25869;BME280;13688;53.154;18.136;2023-08-01T05:09:48;99459.02;;;17.09;100.00
25869;BME280;13688;53.154;18.136;2023-08-01T05:15:10;99460.05;;;17.08;100.00
25869;BME280;13688;53.154;18.136;2023-08-01T05:20:33;99463.23;;;16.97;100.00
25869;BME280;13688;53.154;18.136;2023-08-01T05:25:56;99460.07;;;16.94;100.00
25869;BME280;13688;53.154;18.136;2023-08-01T05:31:18;99457.86;;;16.82;100.00
25869;BME280;13688;53.154;18.136;2023-08-01T05:36:40;99451.30;;;16.77;100.00
25869;BME280;13688;53.154;18.136;2023-08-01T05:42:03;99441.22;;;16.71;100.00
25869;BME280;13688;53.154;18.136;2023-08-01T05:47:26;99444.84;;;16.63;100.00
25869;BME280;13688;53.154;18.136;2023-08-01T05:52:49;99442.23;;;16.55;100.00
25869;BME280;13688;53.154;18.136;2023-08-01T05:58:12;99442.88;;;16.57;100.00
25869;BME280;13688;53.154;18.136;2023-08-01T06:03:36;99446.17;;;16.52;100.00
25869;BME280;13688;53.154;18.136;2023-08-01T06:08:59;99431.47;;;16.47;100.00
25869;BME280;13688;53.154;18.136;2023-08-01T06:14:21;99427.53;;;16.49;100.00
25869;BME280;13688;53.154;18.136;2023-08-01T06:19:44;99425.41;;;16.45;100.00
25869;BME280;13688;53.154;18.136;2023-08-01T06:25:06;99437.19;;;16.37;100.00
25869;BME280;13688;53.154;18.136;2023-08-01T06:30:29;99441.77;;;16.37;100.00
25869;BME280;13688;53.154;18.136;2023-08-01T06:35:51;99433.83;;;16.35;100.00
25869;BME280;13688;53.154;18.136;2023-08-01T06:41:14;99426.34;;;16.37;100.00
25869;BME280;13688;53.154;18.136;2023-08-01T06:46:36;99423.23;;;16.40;100.00
25869;BME280;13688;53.154;18.136;2023-08-01T06:51:59;99416.97;;;16.40;100.00
25869;BME280;13688;53.154;18.136;2023-08-01T06:57:24;99423.53;;;16.45;100.00
25869;BME280;13688;53.154;18.136;2023-08-01T07:02:46;99415.00;;;16.48;100.00
25869;BME280;13688;53.154;18.136;2023-08-01T07:08:09;99412.56;;;16.68;100.00
25869;BME280;13688;53.154;18.136;2023-08-01T07:13:32;99410.22;;;16.80;100.00
25869;BME280;13688;53.154;18.136;2023-08-01T07:18:55;99400.93;;;16.89;100.00
25869;BME280;13688;53.154;18.136;2023-08-01T07:24:18;99393.79;;;16.88;100.00
25869;BME280;13688;53.154;18.136;2023-08-01T07:29:42;99386.48;;;16.88;100.00
25869;BME280;13688;53.154;18.136;2023-08-01T07:35:04;99377.97;;;17.13;100.00
25869;BME280;13688;53.154;18.136;2023-08-01T07:40:28;99373.96;;;17.30;100.00
25869;BME280;13688;53.154;18.136;2023-08-01T07:45:59;99368.26;;;17.25;100.00
25869;BME280;13688;53.154;18.136;2023-08-01T07:51:21;99370.54;;;17.22;100.00
25869;BME280;13688;53.154;18.136;2023-08-01T07:56:43;99372.02;;;17.24;100.00
25869;BME280;13688;53.154;18.136;2023-08-01T08:02:09;99360.11;;;17.25;100.00
25869;BME280;13688;53.154;18.136;2023-08-01T08:07:32;99366.02;;;17.29;100.00
25869;BME280;13688;53.154;18.136;2023-08-01T08:12:58;99360.95;;;17.26;100.00
25869;BME280;13688;53.154;18.136;2023-08-01T08:18:32;99365.74;;;17.24;100.00
25869;BME280;13688;53.154;18.136;2023-08-01T08:23:57;99359.47;;;17.23;100.00
25869;BME280;13688;53.154;18.136;2023-08-01T08:29:25;99347.83;;;17.29;100.00
25869;BME280;13688;53.154;18.136;2023-08-01T08:34:50;99348.47;;;17.31;100.00
25869;BME280;13688;53.154;18.136;2023-08-01T08:40:18;99348.70;;;17.36;100.00
25869;BME280;13688;53.154;18.136;2023-08-01T08:45:43;99335.45;;;17.48;100.00
25869;BME280;13688;53.154;18.136;2023-08-01T08:51:08;99339.23;;;17.54;100.00
25869;BME280;13688;53.154;18.136;2023-08-01T08:56:33;99340.53;;;17.58;100.00
25869;BME280;13688;53.154;18.136;2023-08-01T09:01:56;99318.81;;;17.64;100.00
25869;BME280;13688;53.154;18.136;2023-08-01T09:07:20;99320.95;;;17.69;100.00
25869;BME280;13688;53.154;18.136;2023-08-01T09:12:45;99309.61;;;17.93;100.00
25869;BME280;13688;53.154;18.136;2023-08-01T09:18:12;99308.70;;;18.21;100.00
25869;BME280;13688;53.154;18.136;2023-08-01T09:23:38;99290.17;;;18.44;100.00
25869;BME280;13688;53.154;18.136;2023-08-01T09:29:02;99271.61;;;18.68;100.00
25869;BME280;13688;53.154;18.136;2023-08-01T09:34:28;99274.57;;;18.86;100.00
25869;BME280;13688;53.154;18.136;2023-08-01T09:39:54;99264.94;;;18.97;100.00
25869;BME280;13688;53.154;18.136;2023-08-01T09:45:19;99254.04;;;19.16;100.00
25869;BME280;13688;53.154;18.136;2023-08-01T09:50:41;99252.78;;;19.26;100.00
25869;BME280;13688;53.154;18.136;2023-08-01T09:56:05;99241.25;;;19.10;100.00
25869;BME280;13688;53.154;18.136;2023-08-01T10:01:32;99234.36;;;19.01;100.00
25869;BME280;13688;53.154;18.136;2023-08-01T10:07:04;99241.25;;;18.91;100.00
25869;BME280;13688;53.154;18.136;2023-08-01T10:12:22;99237.92;;;18.95;100.00
25869;BME280;13688;53.154;18.136;2023-08-01T10:17:44;99222.63;;;18.94;100.00
25869;BME280;13688;53.154;18.136;2023-08-01T10:23:08;99219.27;;;18.85;100.00
25869;BME280;13688;53.154;18.136;2023-08-01T10:28:49;99219.27;;;18.85;100.00
25869;BME280;13688;53.154;18.136;2023-08-01T10:34:14;99223.87;;;18.78;100.00
25869;BME280;13688;53.154;18.136;2023-08-01T10:39:38;99211.09;;;18.66;100.00
25869;BME280;13688;53.154;18.136;2023-08-01T10:45:02;99206.70;;;18.65;100.00
25869;BME280;13688;53.154;18.136;2023-08-01T10:50:40;99200.41;;;18.97;100.00
25869;BME280;13688;53.154;18.136;2023-08-01T10:56:20;99189.48;;;19.17;100.00
25869;BME280;13688;53.154;18.136;2023-08-01T11:01:48;99169.69;;;19.55;100.00
25869;BME280;13688;53.154;18.136;2023-08-01T11:07:23;99162.41;;;19.29;100.00
25869;BME280;13688;53.154;18.136;2023-08-01T11:12:47;99154.09;;;18.97;100.00
25869;BME280;13688;53.154;18.136;2023-08-01T11:18:10;99161.44;;;18.70;100.00
25869;BME280;13688;53.154;18.136;2023-08-01T11:23:35;99160.20;;;18.66;100.00
25869;BME280;13688;53.154;18.136;2023-08-01T11:29:01;99150.34;;;18.72;100.00
25869;BME280;13688;53.154;18.136;2023-08-01T11:34:24;99141.36;;;18.65;100.00
25869;BME280;13688;53.154;18.136;2023-08-01T11:39:50;99153.04;;;18.58;100.00
25869;BME280;13688;53.154;18.136;2023-08-01T11:45:15;99157.64;;;18.38;100.00
25869;BME280;13688;53.154;18.136;2023-08-01T11:50:38;99153.19;;;18.11;100.00
25869;BME280;13688;53.154;18.136;2023-08-01T11:56:01;99160.46;;;17.90;100.00
25869;BME280;13688;53.154;18.136;2023-08-01T12:01:24;99150.78;;;17.74;100.00
25869;BME280;13688;53.154;18.136;2023-08-01T12:06:47;99148.72;;;17.83;100.00
25869;BME280;13688;53.154;18.136;2023-08-01T12:12:14;99142.23;;;17.84;100.00
25869;BME280;13688;53.154;18.136;2023-08-01T12:17:42;99126.60;;;17.99;100.00
25869;BME280;13688;53.154;18.136;2023-08-01T12:23:06;99130.41;;;18.18;100.00
25869;BME280;13688;53.154;18.136;2023-08-01T12:28:28;99133.14;;;18.38;100.00
25869;BME280;13688;53.154;18.136;2023-08-01T12:33:52;99117.04;;;18.63;100.00
25869;BME280;13688;53.154;18.136;2023-08-01T12:39:15;99103.84;;;18.86;100.00
25869;BME280;13688;53.154;18.136;2023-08-01T12:44:38;99108.34;;;19.26;100.00
25869;BME280;13688;53.154;18.136;2023-08-01T12:50:01;99095.46;;;19.53;100.00
25869;BME280;13688;53.154;18.136;2023-08-01T12:55:24;99093.66;;;19.78;100.00
25869;BME280;13688;53.154;18.136;2023-08-01T13:00:51;99096.36;;;19.85;100.00
25869;BME280;13688;53.154;18.136;2023-08-01T13:06:15;99083.42;;;19.73;100.00
25869;BME280;13688;53.154;18.136;2023-08-01T13:11:38;99084.58;;;19.46;100.00
25869;BME280;13688;53.154;18.136;2023-08-01T13:17:00;99078.52;;;19.44;100.00
25869;BME280;13688;53.154;18.136;2023-08-01T13:22:24;99079.78;;;19.41;100.00
25869;BME280;13688;53.154;18.136;2023-08-01T13:27:47;99081.45;;;19.42;100.00
25869;BME280;13688;53.154;18.136;2023-08-01T13:33:10;99060.63;;;19.55;100.00
25869;BME280;13688;53.154;18.136;2023-08-01T13:38:44;99052.56;;;19.80;100.00
25869;BME280;13688;53.154;18.136;2023-08-01T13:44:07;99064.20;;;19.62;100.00
25869;BME280;13688;53.154;18.136;2023-08-01T13:49:30;99050.56;;;19.55;100.00
25869;BME280;13688;53.154;18.136;2023-08-01T13:54:53;99048.84;;;19.67;100.00
25869;BME280;13688;53.154;18.136;2023-08-01T14:00:20;99047.17;;;19.66;100.00
25869;BME280;13688;53.154;18.136;2023-08-01T14:05:47;99042.97;;;19.70;100.00
25869;BME280;13688;53.154;18.136;2023-08-01T14:11:12;99038.34;;;19.71;100.00
25869;BME280;13688;53.154;18.136;2023-08-01T14:16:37;99032.64;;;19.79;100.00
25869;BME280;13688;53.154;18.136;2023-08-01T14:22:00;99022.53;;;20.11;100.00
25869;BME280;13688;53.154;18.136;2023-08-01T14:27:22;99027.88;;;19.99;100.00
25869;BME280;13688;53.154;18.136;2023-08-01T14:32:47;99032.19;;;19.82;100.00
25869;BME280;13688;53.154;18.136;2023-08-01T14:38:19;99025.02;;;19.50;100.00
25869;BME280;13688;53.154;18.136;2023-08-01T14:43:43;99045.97;;;19.04;100.00
25869;BME280;13688;53.154;18.136;2023-08-01T14:49:06;99078.91;;;18.10;100.00
25869;BME280;13688;53.154;18.136;2023-08-01T14:54:29;99069.69;;;17.91;100.00
25869;BME280;13688;53.154;18.136;2023-08-01T14:59:52;99079.31;;;18.00;100.00
25869;BME280;13688;53.154;18.136;2023-08-01T15:05:15;99076.41;;;18.22;100.00
25869;BME280;13688;53.154;18.136;2023-08-01T15:10:37;99074.10;;;18.32;100.00
25869;BME280;13688;53.154;18.136;2023-08-01T15:16:00;99066.17;;;18.24;100.00
25869;BME280;13688;53.154;18.136;2023-08-01T15:21:26;99070.34;;;18.20;100.00
25869;BME280;13688;53.154;18.136;2023-08-01T15:26:49;99072.63;;;18.03;100.00
25869;BME280;13688;53.154;18.136;2023-08-01T15:32:12;99065.31;;;18.10;100.00
25869;BME280;13688;53.154;18.136;2023-08-01T15:37:35;99050.03;;;18.22;100.00
25869;BME280;13688;53.154;18.136;2023-08-01T15:42:58;99054.59;;;18.88;100.00
25869;BME280;13688;53.154;18.136;2023-08-01T15:48:20;99069.89;;;19.92;100.00
25869;BME280;13688;53.154;18.136;2023-08-01T15:53:43;99087.89;;;19.99;100.00
25869;BME280;13688;53.154;18.136;2023-08-01T15:59:06;99096.69;;;20.01;100.00
25869;BME280;13688;53.154;18.136;2023-08-01T16:04:30;99095.00;;;20.32;100.00
25869;BME280;13688;53.154;18.136;2023-08-01T16:09:59;99087.30;;;20.97;100.00
25869;BME280;13688;53.154;18.136;2023-08-01T16:15:22;99088.18;;;21.34;100.00
25869;BME280;13688;53.154;18.136;2023-08-01T16:20:48;99084.77;;;20.77;100.00
25869;BME280;13688;53.154;18.136;2023-08-01T16:26:14;99082.07;;;20.21;100.00
25869;BME280;13688;53.154;18.136;2023-08-01T16:31:37;99092.92;;;20.59;100.00
25869;BME280;13688;53.154;18.136;2023-08-01T16:37:02;99107.19;;;21.23;100.00
25869;BME280;13688;53.154;18.136;2023-08-01T16:42:29;99089.80;;;20.99;100.00
25869;BME280;13688;53.154;18.136;2023-08-01T16:47:51;99094.13;;;20.63;100.00
25869;BME280;13688;53.154;18.136;2023-08-01T16:53:15;99111.76;;;20.36;100.00
25869;BME280;13688;53.154;18.136;2023-08-01T16:58:37;99131.55;;;20.31;100.00
25869;BME280;13688;53.154;18.136;2023-08-01T17:04:00;99140.86;;;20.17;100.00
25869;BME280;13688;53.154;18.136;2023-08-01T17:09:22;99150.16;;;20.47;100.00
25869;BME280;13688;53.154;18.136;2023-08-01T17:14:45;99151.16;;;20.15;100.00
25869;BME280;13688;53.154;18.136;2023-08-01T17:20:10;99144.60;;;19.91;100.00
25869;BME280;13688;53.154;18.136;2023-08-01T17:25:33;99140.72;;;19.67;100.00
25869;BME280;13688;53.154;18.136;2023-08-01T17:31:01;99135.48;;;19.65;100.00
25869;BME280;13688;53.154;18.136;2023-08-01T17:36:23;99136.31;;;19.66;100.00
25869;BME280;13688;53.154;18.136;2023-08-01T17:41:47;99138.02;;;19.54;100.00
25869;BME280;13688;53.154;18.136;2023-08-01T17:47:10;99133.25;;;19.42;100.00
25869;BME280;13688;53.154;18.136;2023-08-01T17:52:33;99144.82;;;19.31;100.00
25869;BME280;13688;53.154;18.136;2023-08-01T17:57:56;99151.77;;;19.14;100.00
25869;BME280;13688;53.154;18.136;2023-08-01T18:03:19;99161.84;;;19.00;100.00
25869;BME280;13688;53.154;18.136;2023-08-01T18:08:43;99165.83;;;19.04;100.00
25869;BME280;13688;53.154;18.136;2023-08-01T18:14:06;99159.33;;;18.99;100.00
25869;BME280;13688;53.154;18.136;2023-08-01T18:19:29;99182.61;;;18.75;100.00
25869;BME280;13688;53.154;18.136;2023-08-01T18:24:51;99215.94;;;17.27;100.00
25869;BME280;13688;53.154;18.136;2023-08-01T18:30:15;99237.16;;;16.24;100.00
25869;BME280;13688;53.154;18.136;2023-08-01T18:35:43;99251.81;;;15.94;100.00
25869;BME280;13688;53.154;18.136;2023-08-01T18:41:09;99245.27;;;15.59;100.00
25869;BME280;13688;53.154;18.136;2023-08-01T18:46:32;99245.63;;;15.41;100.00
25869;BME280;13688;53.154;18.136;2023-08-01T18:51:56;99258.80;;;15.44;100.00
25869;BME280;13688;53.154;18.136;2023-08-01T18:57:20;99259.47;;;15.46;100.00
25869;BME280;13688;53.154;18.136;2023-08-01T19:02:43;99254.25;;;15.44;100.00
25869;BME280;13688;53.154;18.136;2023-08-01T19:08:25;99248.23;;;15.38;100.00
25869;BME280;13688;53.154;18.136;2023-08-01T19:13:55;99248.23;;;15.20;100.00
25869;BME280;13688;53.154;18.136;2023-08-01T19:19:21;99305.60;;;15.38;100.00
25869;BME280;13688;53.154;18.136;2023-08-01T19:24:50;99303.73;;;15.38;100.00
25869;BME280;13688;53.154;18.136;2023-08-01T19:30:14;99300.00;;;15.39;100.00
25869;BME280;13688;53.154;18.136;2023-08-01T19:35:41;99312.70;;;15.39;100.00
25869;BME280;13688;53.154;18.136;2023-08-01T19:41:20;99311.94;;;15.30;100.00
25869;BME280;13688;53.154;18.136;2023-08-01T19:46:55;99321.55;;;15.33;100.00
25869;BME280;13688;53.154;18.136;2023-08-01T19:52:24;99327.19;;;15.46;100.00
25869;BME280;13688;53.154;18.136;2023-08-01T19:57:47;99313.49;;;15.25;100.00
25869;BME280;13688;53.154;18.136;2023-08-01T20:03:12;99308.45;;;15.22;100.00
25869;BME280;13688;53.154;18.136;2023-08-01T20:08:35;99316.30;;;15.16;100.00
25869;BME280;13688;53.154;18.136;2023-08-01T20:13:58;99332.95;;;15.05;100.00
25869;BME280;13688;53.154;18.136;2023-08-01T20:19:21;99355.64;;;15.04;100.00
25869;BME280;13688;53.154;18.136;2023-08-01T20:24:46;99364.73;;;15.11;100.00
25869;BME280;13688;53.154;18.136;2023-08-01T20:30:13;99369.30;;;15.11;100.00
25869;BME280;13688;53.154;18.136;2023-08-01T20:35:36;99359.78;;;15.15;100.00
25869;BME280;13688;53.154;18.136;2023-08-01T20:41:01;99356.14;;;15.08;100.00
25869;BME280;13688;53.154;18.136;2023-08-01T20:46:30;99356.33;;;15.06;100.00
25869;BME280;13688;53.154;18.136;2023-08-01T20:51:52;99351.84;;;15.13;100.00
25869;BME280;13688;53.154;18.136;2023-08-01T20:57:15;99347.36;;;15.06;100.00
25869;BME280;13688;53.154;18.136;2023-08-01T21:02:38;99339.77;;;15.01;100.00
25869;BME280;13688;53.154;18.136;2023-08-01T21:08:00;99346.92;;;14.94;100.00
25869;BME280;13688;53.154;18.136;2023-08-01T21:13:22;99365.27;;;14.84;100.00
25869;BME280;13688;53.154;18.136;2023-08-01T21:18:45;99381.69;;;14.82;100.00
25869;BME280;13688;53.154;18.136;2023-08-01T21:24:07;99383.92;;;15.02;100.00
25869;BME280;13688;53.154;18.136;2023-08-01T21:29:30;99398.48;;;15.01;100.00
25869;BME280;13688;53.154;18.136;2023-08-01T21:34:52;99397.45;;;15.02;100.00
25869;BME280;13688;53.154;18.136;2023-08-01T21:40:15;99407.52;;;15.16;100.00
25869;BME280;13688;53.154;18.136;2023-08-01T21:45:38;99403.97;;;15.15;100.00
25869;BME280;13688;53.154;18.136;2023-08-01T21:51:00;99406.92;;;15.06;100.00
25869;BME280;13688;53.154;18.136;2023-08-01T21:56:23;99401.19;;;15.01;100.00
25869;BME280;13688;53.154;18.136;2023-08-01T22:01:45;99411.77;;;14.87;100.00
25869;BME280;13688;53.154;18.136;2023-08-01T22:07:08;99413.50;;;14.80;100.00
25869;BME280;13688;53.154;18.136;2023-08-01T22:12:31;99447.18;;;14.78;100.00
25869;BME280;13688;53.154;18.136;2023-08-01T22:17:54;99437.89;;;14.72;100.00
25869;BME280;13688;53.154;18.136;2023-08-01T22:23:16;99443.34;;;14.64;100.00
25869;BME280;13688;53.154;18.136;2023-08-01T22:28:41;99456.90;;;14.56;100.00
25869;BME280;13688;53.154;18.136;2023-08-01T22:34:04;99457.92;;;14.55;100.00
25869;BME280;13688;53.154;18.136;2023-08-01T22:39:27;99459.66;;;14.48;100.00
25869;BME280;13688;53.154;18.136;2023-08-01T22:44:49;99465.39;;;14.37;100.00
25869;BME280;13688;53.154;18.136;2023-08-01T22:50:13;99454.77;;;14.27;100.00
25869;BME280;13688;53.154;18.136;2023-08-01T22:55:37;99457.38;;;14.12;100.00
25869;BME280;13688;53.154;18.136;2023-08-01T23:01:00;99465.33;;;13.97;100.00
25869;BME280;13688;53.154;18.136;2023-08-01T23:06:26;99462.13;;;13.94;100.00
25869;BME280;13688;53.154;18.136;2023-08-01T23:11:49;99464.00;;;13.93;100.00
25869;BME280;13688;53.154;18.136;2023-08-01T23:17:12;99472.59;;;13.89;100.00
25869;BME280;13688;53.154;18.136;2023-08-01T23:22:35;99477.20;;;13.80;100.00
25869;BME280;13688;53.154;18.136;2023-08-01T23:27:57;99469.09;;;13.72;100.00
25869;BME280;13688;53.154;18.136;2023-08-01T23:33:20;99459.63;;;13.60;100.00
25869;BME280;13688;53.154;18.136;2023-08-01T23:38:42;99453.23;;;13.44;100.00
25869;BME280;13688;53.154;18.136;2023-08-01T23:44:05;99455.73;;;13.30;100.00
25869;BME280;13688;53.154;18.136;2023-08-01T23:49:29;99468.37;;;13.21;100.00
25869;BME280;13688;53.154;18.136;2023-08-01T23:54:52;99479.34;;;13.20;100.00
